Mt. Lincoln Summit Weather observations

Data are for 10 minute period ending at time listed.
 Day   Time   Solar   Ave.   Ave.  Ave.  Vector    Max.   Stn.  
  of    of     Rad.   Air    Rel.  Wind   Wind     Wind   Baro.  
Year   Day            Temp.  Hum.  Speed  Dir.     Gust   Pres. 
2015   (PST)   W/m2    F      %     mph   deg.      mph    mb    
-----------------------------------------------------------------
 106   19:50  999.0    35   79.8    40     58.1    47.8   610.50
 106   20:00  999.0    35   79.6    40     61.1    49.9   611.50
 106   20:10  999.0    35   79.8    44     59.7    53.6   613.80
 106   20:20  999.0    35   79.7    43     61.7    49.7   614.50
 106   20:30  999.0    35   79.8    45     63.1    50.7   616.40
 106   20:40  999.0    35   79.8    46     62.9    53.3   616.30
 106   20:50  999.0    35   79.8    47     63.3    56.7   614.90
 106   21:00  999.0    35   79.6    42     68.1    53.1   614.10
 106   21:10  999.0    35   79.7    38     70.7    45.3   614.50
 106   21:20  999.0    35   79.9    43     64.9    48.0   616.80
 106   21:30  999.0    36   80.0    45     63.1    50.2   618.00
 106   21:40  999.0    36   79.9    46     61.8    52.5   616.60
 106   21:50  999.0    36   79.9    46     63.9    52.1   616.30
 106   22:00  999.0    36   79.8    41     67.9    50.3   614.70
 106   22:10  999.0    36   79.7    43     67.8    49.1   613.90
 106   22:20  999.0    35   79.6    39     73.5    44.2   613.10
 106   22:30  999.0    35   79.7    41     73.6    47.1   613.60
 106   22:40  999.0    35   79.9    41     75.7    48.8   613.60
 106   22:50  999.0    35   79.5    38     80.6    47.2   611.80
 106   23:00  999.0    34   79.5    36     81.2    47.1   612.70
 106   23:10  999.0    34   79.4    34     84.5    43.4   611.90
 106   23:20  999.0    34   79.4    33     84.8    40.8   611.30
 106   23:30  999.0    34   79.3    32     84.9    39.7   612.10
 106   23:40  999.0    33   79.4    33     84.6    39.9   611.90
 106   23:50  999.0    34   79.5    32     85.7    38.5   612.00
 107    0:00  999.0    33   79.3    31     85.1    37.8   612.10
 107    0:10  999.0    33   79.4    30     87.3    36.8   609.70
 107    0:20  999.0    33   79.4    29     88.1    36.7   609.50
 107    0:30  999.0    33   79.4    28     84.9    34.4   609.70
 107    0:40  999.0    33   79.4    28     86.2    34.7   610.70
 107    0:50  999.0    33   79.4    29     86.1    34.9   609.50
 107    1:00  999.0    32   79.4    28     86.0    35.5   608.20
 107    1:10  999.0    32   79.4    29     88.1    35.2   609.50
 107    1:20  999.0    33   79.6    30     87.2    36.6   609.50
 107    1:30  999.0    33   79.4    29     85.4    35.0   608.80
 107    1:40  999.0    32   79.5    29     86.9    35.8   608.80
 107    1:50  999.0    33   79.5    30     86.5    35.8   609.60
 107    2:00  999.0    33   79.5    29     85.9    35.2   608.90
 107    2:10  999.0    33   79.6    30     87.9    38.7   609.00
 107    2:20  999.0    33   79.5    30     87.7    37.1   611.80
 107    2:30  999.0    33   79.5    30     88.1    39.9   610.90
 107    2:40  999.0    33   79.6    31     91.3    38.5   610.80
 107    2:50  999.0    34   79.6    33     90.0    39.0   612.80
 107    3:00  999.0    34   79.4    34     92.5    40.0   610.50
 107    3:10  999.0    34   79.2    34     92.8    40.5   609.30
 107    3:20  999.0    34   79.1    36     93.1    41.2   612.60
 107    3:30  999.0    34   78.9    35     93.4    40.5   608.50
 107    3:40  999.0    35   78.8    36     94.3    40.6   608.40
 107    3:50  999.0    35   78.5    36     93.9    41.1   606.80
 107    4:00  999.0    35   78.5    34     93.3    39.3   608.10
 107    4:10  999.0    35   78.3    35     94.0    40.6   606.70
 107    4:20  999.0    35   78.2    32     93.8    40.1   609.20
 107    4:30  999.0    35   78.2    34     95.0    42.8   610.80
 107    4:40  999.0    35   77.8    32     95.0    41.5   605.50
 107    4:50  999.0    35   77.7    31     95.6    41.4   608.90
 107    5:00  999.0    36   77.4    31     94.7    36.7   606.20
 107    5:10  999.0    35   77.3    31     95.5    37.5   605.20
 107    5:20  999.0    35   77.5    30     95.5    37.2   605.70
 107    5:30  999.0    35   77.5    30     94.7    36.3   604.90
 107    5:40  999.0    36   77.5    30     95.0    35.8   604.60
 107    5:50  999.0    37   76.6    28     96.1    35.6   602.90
 107    6:00  999.0    39   75.4    28     96.4    34.9   603.00
 107    6:10  999.0    40   74.4    28     96.7    32.4   604.00
 107    6:20  999.0    41   73.1    28     95.3    32.0   605.90
 107    6:30  999.0    42   72.4    27     97.0    32.8   605.90
 107    6:40  999.0    44   71.5    28     98.0    34.0   605.50
 107    6:50  999.0    45   70.4    26     97.7    32.3   607.00
 107    7:00  999.0    46   69.8    23    102.4    27.3   605.50
 107    7:10  999.0    47   69.0    21    102.2    24.7   606.80
 107    7:20  999.0    48   68.5    20    104.5    23.5   606.60
 107    7:30  999.0    49   68.1    21    102.4    24.1   607.80
 107    7:40  999.0    49   68.1    20    103.0    23.9   607.50
 107    7:50  999.0    49   68.3    20    104.0    23.4   607.70
 107    8:00  999.0    48   68.6    19    101.1    22.7   607.80
 107    8:10  999.0    48   68.8    19     97.9    24.0   609.40
 107    8:20  999.0    48   68.8    19    102.0    24.4   607.30
 107    8:30  999.0    49   68.8    14    101.6    17.8   608.70
 107    8:40  999.0    49   69.2    14    105.7    18.3   606.50
 107    8:50  999.0    50   69.0    13    111.1    19.3   606.60
 107    9:00  999.0    50   69.5    11    103.6    16.0   607.00
 107    9:10  999.0    49   70.1    14    104.6    19.9   607.10
 107    9:20  999.0    48   70.5    13     89.7    19.1   608.60
 107    9:30  999.0    47   72.0     9     91.2    16.5   608.60
 107    9:40  999.0    47   72.7    10     90.9    16.7   608.40
 107    9:50  999.0    46   73.2    11     82.6    20.1   608.10
 107   10:00  999.0    47   73.9    10     95.8    16.0   605.80
 107   10:10  999.0    48   74.0     9     95.3    17.6   607.60
 107   10:20  999.0    49   73.5    12     92.7    17.9   606.80
 107   10:30  999.0    49   73.4    10     83.4    14.6   607.70
 107   10:40  999.0    49   73.7     8     95.7    11.9   606.80
 107   10:50  999.0    48   73.8     9     62.9    13.3   604.90
 107   11:00  999.0    46   76.1     6     87.5    10.7   602.60
 107   11:10  999.0    49   76.1     6     64.0    16.3   601.80
 107   11:20  999.0    47   76.4     6     74.6    10.4   602.10
 107   11:30  999.0    50   76.2     6     65.5    16.0   601.10
 107   11:40  999.0    49   75.7    12     61.3    17.5   603.20
 107   11:50  999.0    48   76.9     5     87.0     7.5   601.80
 107   12:00  999.0    52   75.8     8     69.8    17.6   604.30
 107   12:10  999.0    51   75.9     4     89.5    12.2   601.80
 107   12:20  999.0    53   75.4     4     77.9     8.2   600.70
 107   12:30  999.0    50   75.2     6     59.8    10.7   602.50
 107   12:40  999.0    50   77.2     3     29.5    10.9   601.40
 107   12:50  999.0    50   77.9     6     39.8    10.7   601.00
 107   13:00  999.0    51   77.6     6     34.8    11.3   601.10
 107   13:10  999.0    50   77.5    10     32.2    18.1   602.20
 107   13:20  999.0    49   78.5     9    344.0    13.9   601.50
 107   13:30  999.0    50   79.0    10    338.2    14.5   601.20
 107   13:40  999.0    50   79.3    13     19.0    18.8   602.40
 107   13:50  999.0    50   79.6     9      7.6    17.6   600.00
 107   14:00  999.0    50   79.8     8     61.6    15.8   598.20
 107   14:10  999.0    52   78.6    12     65.5    22.9   600.50
 107   14:20  999.0    55   78.0     8    103.4    11.0   598.40
 107   14:30  999.0    60   74.5     2     93.0     7.3   597.40
 107   14:40  999.0    56   74.4     6      6.0    13.4   598.10
 107   14:50  999.0    54   77.0     0    328.3     5.3   599.10
 107   15:00  999.0    57   76.1    13    219.5    20.0   601.40
 107   15:10  999.0    54   75.0    12    259.3    20.1   602.30
 107   15:20  999.0    52   77.5    12    261.6    23.4   602.90
 107   15:30  999.0    50   78.7    13    266.0    24.9   603.30
 107   15:40  999.0    50   79.4    15    254.9    22.1   602.90
 107   15:50  999.0    50   79.7     9    284.0    16.8   602.00
 107   16:00  999.0    49   79.8    10    300.6    16.6   601.30
 107   16:10  999.0    49   79.9    10    304.1    15.8   601.40
 107   16:20  999.0    48   79.9    14    312.6    27.8   601.30
 107   16:30  999.0    48   80.0     8    288.8    14.2   601.40
 107   16:40  999.0    48   80.0     9    289.6    14.1   603.00
 107   16:50  999.0    48   80.1    11    273.1    20.2   604.20
 107   17:00  999.0    48   80.0    10    298.5    14.8   603.70
 107   17:10  999.0    47   80.0    14    306.0    23.0   604.70
 107   17:20  999.0    47   80.1    13    302.5    22.7   605.30
 107   17:30  999.0    46   80.0    13    289.0    19.5   603.10
 107   17:40  999.0    46   80.1    13    286.5    19.3   603.70
 107   17:50  999.0    46   80.1    12    290.2    17.9   604.10
 107   18:00  999.0    46   80.1    11    294.1    15.4   602.40
 107   18:10  999.0    45   80.0    10    285.6    14.4   602.40
 107   18:20  999.0    45   80.0    11    270.6    16.3   602.80
 107   18:30  999.0    44   80.0    11    266.2    14.5   604.50
 107   18:40  999.0    44   79.9    12    271.4    15.4   604.40
 107   18:50  999.0    43   79.9    12    265.8    15.7   602.50
 107   19:00  999.0    43   80.1    12    282.7    14.9   602.10
 107   19:10  999.0    43   80.2    11    292.3    16.5   601.70
 107   19:20  999.0    43   80.2    12    311.5    17.2   603.40
 107   19:30  999.0    43   80.2    13    302.0    17.5   603.90
 107   19:40  999.0    43   80.2    16    312.9    19.9   604.20

Return to Mt. Lincoln graphs page.


Western Regional Climate Center,wrcc@dri.edu